TimeCEST,TemperatureF,Dew PointF,Humidity,Sea Level PressureIn,VisibilityMPH,Wind Direction,Wind SpeedMPH,Gust SpeedMPH,PrecipitationIn,Events,Conditions,WindDirDegrees,DateUTC
12:00 AM,46.4,44.6,93,30.15,4.3,North,12.7,-,N/A,Rain,Light Rain,360,2013-04-30 22:00:00
12:30 AM,46.4,44.6,93,30.15,4.3,North,12.7,-,N/A,Rain,Light Rain,360,2013-04-30 22:30:00
1:00 AM,46.4,44.6,93,30.15,4.3,North,12.7,-,N/A,,Overcast,360,2013-04-30 23:00:00
1:30 AM,46.4,44.6,93,30.18,4.3,North,9.2,-,N/A,,Overcast,360,2013-04-30 23:30:00
2:00 AM,47,45,89,30.21,4,North,8.9,,,Rain,Light Rain,350,2013-05-01 00:00:00
2:00 AM,46.4,44.6,93,30.18,3.7,NNW,9.2,-,N/A,,Overcast,340,2013-05-01 00:00:00
2:30 AM,46.4,44.6,93,30.18,3.7,North,10.4,-,N/A,,Overcast,350,2013-05-01 00:30:00
3:00 AM,46.4,44.6,93,30.18,-9999.0,North,10.4,-,N/A,,Light Drizzle,350,2013-05-01 01:00:00
3:14 AM,46.4,44.6,93,30.18,1.7,North,9.2,-,N/A,,Light Drizzle,350,2013-05-01 01:14:00
3:30 AM,44.6,44.6,100,30.18,1.7,North,11.5,-,N/A,,Drizzle,350,2013-05-01 01:30:00
4:00 AM,44.6,44.6,100,30.18,1.8,North,10.4,-,N/A,,Light Drizzle,360,2013-05-01 02:00:00
4:30 AM,44.6,44.6,100,30.18,-9999.0,North,9.2,-,N/A,,Light Drizzle,360,2013-05-01 02:30:00
5:00 AM,44.6,44.6,100,30.18,-9999.0,North,8.1,-,N/A,,Light Drizzle,10,2013-05-01 03:00:00
5:30 AM,44.6,44.6,100,30.21,-9999.0,North,5.8,-,N/A,,Overcast,10,2013-05-01 03:30:00
5:53 AM,44.6,44.6,100,30.21,1.6,North,4.6,-,N/A,,Overcast,350,2013-05-01 03:53:00
6:00 AM,44.6,44.6,100,30.21,1.6,North,4.6,-,N/A,,Overcast,350,2013-05-01 04:00:00
6:30 AM,44.6,44.6,100,30.21,1.3,North,4.6,-,N/A,,Overcast,360,2013-05-01 04:30:00
7:00 AM,44.6,44.6,100,30.21,1.6,North,3.5,-,N/A,,Overcast,360,2013-05-01 05:00:00
7:30 AM,46.4,44.6,93,30.21,1.8,North,3.5,-,N/A,,Overcast,360,2013-05-01 05:30:00
8:00 AM,46,45,96,30.26,2,NNE,4.5,,,,Mist,20,2013-05-01 06:00:00
8:00 AM,46.4,44.6,93,30.21,1.9,North,3.5,-,N/A,,Overcast,10,2013-05-01 06:00:00
8:11 AM,46.4,44.6,93,30.21,2.2,North,3.5,-,N/A,,Overcast,360,2013-05-01 06:11:00
8:30 AM,46.4,44.6,93,30.21,2.5,NNE,5.8,-,N/A,,Overcast,20,2013-05-01 06:30:00
8:38 AM,46.4,44.6,93,30.21,3.7,NE,6.9,-,N/A,,Overcast,50,2013-05-01 06:38:00
9:00 AM,48.2,44.6,87,30.21,5.0,ENE,9.2,-,N/A,,Overcast,60,2013-05-01 07:00:00
9:30 AM,48.2,44.6,87,30.21,6.2,ENE,11.5,-,N/A,,Overcast,70,2013-05-01 07:30:00
10:00 AM,48.2,42.8,82,30.24,6.2,ENE,9.2,-,N/A,,Overcast,60,2013-05-01 08:00:00
10:30 AM,48.2,44.6,87,30.24,6.2,ENE,10.4,-,N/A,,Overcast,70,2013-05-01 08:30:00
11:00 AM,48.2,44.6,87,30.24,6.2,ENE,10.4,-,N/A,,Overcast,60,2013-05-01 09:00:00
11:30 AM,48.2,44.6,87,30.24,6.2,East,9.2,-,N/A,,Overcast,80,2013-05-01 09:30:00
12:00 PM,48.2,44.6,87,30.24,6.2,ENE,9.2,-,N/A,,Overcast,60,2013-05-01 10:00:00
12:30 PM,50.0,46.4,87,30.21,5.6,ENE,9.2,-,N/A,,Overcast,60,2013-05-01 10:30:00
1:00 PM,50.0,46.4,87,30.21,5.0,East,9.2,-,N/A,,Overcast,80,2013-05-01 11:00:00
1:30 PM,51.8,46.4,82,30.21,5.0,ENE,9.2,-,N/A,,Overcast,70,2013-05-01 11:30:00
2:00 PM,53,47,75,30.21,5,ENE,8.9,,,,Mist,60,2013-05-01 12:00:00
2:00 PM,51.8,48.2,88,30.18,5.0,East,9.2,-,N/A,,Overcast,80,2013-05-01 12:00:00
2:30 PM,51.8,48.2,88,30.18,5.0,East,6.9,-,N/A,,Overcast,80,2013-05-01 12:30:00
3:00 PM,53.6,46.4,77,30.18,4.3,East,8.1,-,N/A,,Overcast,80,2013-05-01 13:00:00
3:30 PM,53.6,48.2,82,30.18,4.3,ENE,9.2,-,N/A,,Overcast,70,2013-05-01 13:30:00
4:00 PM,53.6,48.2,82,30.15,5.0,ENE,10.4,-,N/A,,Overcast,60,2013-05-01 14:00:00
4:30 PM,53.6,48.2,82,30.15,5.6,ENE,8.1,-,N/A,,Overcast,60,2013-05-01 14:30:00
5:00 PM,53.6,48.2,82,30.15,5.6,East,10.4,-,N/A,,Overcast,80,2013-05-01 15:00:00
5:30 PM,55.4,48.2,77,30.15,6.2,East,9.2,-,N/A,,Overcast,80,2013-05-01 15:30:00
6:00 PM,55.4,48.2,77,30.12,6.2,ENE,10.4,-,N/A,,Overcast,60,2013-05-01 16:00:00
6:30 PM,55.4,48.2,77,30.12,6.2,ENE,9.2,-,N/A,,Overcast,60,2013-05-01 16:30:00
7:00 PM,55.4,48.2,77,30.12,6.2,ENE,8.1,-,N/A,,Scattered Clouds,70,2013-05-01 17:00:00
7:30 PM,53.6,48.2,82,30.12,-9999.0,ENE,8.1,-,N/A,,Clear,60,2013-05-01 17:30:00
8:00 PM,54,48,74,30.13,6,NE,6.7,,,,Scattered Clouds,50,2013-05-01 18:00:00
8:00 PM,53.6,48.2,82,30.12,-9999.0,NNE,3.5,-,N/A,,Clear,30,2013-05-01 18:00:00
8:30 PM,53.6,48.2,82,30.12,5.0,NNE,5.8,-,N/A,,Unknown,30,2013-05-01 18:30:00
9:00 PM,50.0,46.4,87,30.12,5.0,NE,4.6,-,N/A,,Unknown,40,2013-05-01 19:00:00
9:30 PM,51.8,46.4,82,30.12,-9999.0,East,6.9,-,N/A,,Clear,80,2013-05-01 19:30:00
10:00 PM,50.0,46.4,87,30.12,-9999.0,East,10.4,-,N/A,,Clear,80,2013-05-01 20:00:00
10:30 PM,50.0,46.4,87,30.12,-9999.0,East,9.2,-,N/A,,Clear,80,2013-05-01 20:30:00
11:00 PM,50.0,46.4,87,30.09,-9999.0,East,11.5,-,N/A,,Clear,80,2013-05-01 21:00:00
11:30 PM,48.2,46.4,93,30.09,-9999.0,East,12.7,-,N/A,,Clear,80,2013-05-01 21:30:00
11:36 PM,48.2,46.4,93,30.12,6.2,East,6.9,-,N/A,Thunderstorm,Partly Cloudy,80,2013-05-01 21:36:00
11:53 PM,50.0,46.4,87,30.15,6.2,WSW,5.8,-,N/A,Thunderstorm,Thunderstorm,240,2013-05-01 21:53:00